sensor_id;sensor_type;location;lat;lon;timestamp;P1;durP1;ratioP1;P2;durP2;ratioP2
24086;SDS011;22893;50.572;7.234;2022-11-15T00:00:58;3.92;;;1.70;;
24086;SDS011;22893;50.572;7.234;2022-11-15T00:03:26;3.47;;;1.60;;
24086;SDS011;22893;50.572;7.234;2022-11-15T00:05:54;5.12;;;2.10;;
24086;SDS011;22893;50.572;7.234;2022-11-15T00:08:23;3.05;;;1.70;;
24086;SDS011;22893;50.572;7.234;2022-11-15T00:11:00;3.20;;;1.60;;
24086;SDS011;22893;50.572;7.234;2022-11-15T00:13:23;2.65;;;1.17;;
24086;SDS011;22893;50.572;7.234;2022-11-15T00:15:51;2.83;;;1.30;;
24086;SDS011;22893;50.572;7.234;2022-11-15T00:18:19;2.10;;;1.25;;
24086;SDS011;22893;50.572;7.234;2022-11-15T00:20:46;3.05;;;1.40;;
24086;SDS011;22893;50.572;7.234;2022-11-15T00:23:14;3.12;;;1.72;;
24086;SDS011;22893;50.572;7.234;2022-11-15T00:25:42;2.70;;;1.42;;
24086;SDS011;22893;50.572;7.234;2022-11-15T00:28:09;2.85;;;1.70;;
24086;SDS011;22893;50.572;7.234;2022-11-15T00:30:37;3.60;;;1.98;;
24086;SDS011;22893;50.572;7.234;2022-11-15T00:33:05;3.27;;;1.45;;
24086;SDS011;22893;50.572;7.234;2022-11-15T00:35:33;5.12;;;1.42;;
24086;SDS011;22893;50.572;7.234;2022-11-15T00:38:01;2.58;;;1.57;;
24086;SDS011;22893;50.572;7.234;2022-11-15T00:40:29;3.33;;;1.47;;
24086;SDS011;22893;50.572;7.234;2022-11-15T00:42:57;2.95;;;1.40;;
24086;SDS011;22893;50.572;7.234;2022-11-15T00:45:24;2.55;;;1.42;;
24086;SDS011;22893;50.572;7.234;2022-11-15T00:47:52;2.50;;;1.30;;
24086;SDS011;22893;50.572;7.234;2022-11-15T00:50:20;3.08;;;1.30;;
24086;SDS011;22893;50.572;7.234;2022-11-15T00:52:47;3.92;;;1.75;;
24086;SDS011;22893;50.572;7.234;2022-11-15T00:55:15;2.65;;;1.40;;
24086;SDS011;22893;50.572;7.234;2022-11-15T00:57:44;3.33;;;1.62;;
24086;SDS011;22893;50.572;7.234;2022-11-15T01:00:12;2.20;;;1.37;;
24086;SDS011;22893;50.572;7.234;2022-11-15T01:02:40;3.25;;;1.80;;
24086;SDS011;22893;50.572;7.234;2022-11-15T01:05:08;3.15;;;1.42;;
24086;SDS011;22893;50.572;7.234;2022-11-15T01:07:36;3.80;;;1.62;;
24086;SDS011;22893;50.572;7.234;2022-11-15T01:10:03;2.75;;;1.52;;
24086;SDS011;22893;50.572;7.234;2022-11-15T01:12:31;2.33;;;1.40;;
24086;SDS011;22893;50.572;7.234;2022-11-15T01:14:59;2.55;;;1.47;;
24086;SDS011;22893;50.572;7.234;2022-11-15T01:17:27;3.72;;;1.77;;
24086;SDS011;22893;50.572;7.234;2022-11-15T01:19:56;2.50;;;1.40;;
24086;SDS011;22893;50.572;7.234;2022-11-15T01:22:24;2.55;;;1.40;;
24086;SDS011;22893;50.572;7.234;2022-11-15T01:24:51;1.40;;;0.90;;
24086;SDS011;22893;50.572;7.234;2022-11-15T01:27:19;3.65;;;1.50;;
24086;SDS011;22893;50.572;7.234;2022-11-15T01:29:47;2.92;;;1.77;;
24086;SDS011;22893;50.572;7.234;2022-11-15T01:32:15;2.50;;;1.45;;
24086;SDS011;22893;50.572;7.234;2022-11-15T01:34:42;3.55;;;1.72;;
24086;SDS011;22893;50.572;7.234;2022-11-15T01:37:10;3.75;;;1.30;;
24086;SDS011;22893;50.572;7.234;2022-11-15T01:39:38;2.58;;;1.37;;
24086;SDS011;22893;50.572;7.234;2022-11-15T01:42:05;2.35;;;1.22;;
24086;SDS011;22893;50.572;7.234;2022-11-15T01:47:19;2.05;;;1.32;;
24086;SDS011;22893;50.572;7.234;2022-11-15T01:49:52;2.62;;;1.50;;
24086;SDS011;22893;50.572;7.234;2022-11-15T01:52:24;3.55;;;1.60;;
24086;SDS011;22893;50.572;7.234;2022-11-15T01:57:53;3.22;;;1.75;;
24086;SDS011;22893;50.572;7.234;2022-11-15T02:00:22;1.87;;;1.22;;
24086;SDS011;22893;50.572;7.234;2022-11-15T02:02:49;2.85;;;1.50;;
24086;SDS011;22893;50.572;7.234;2022-11-15T02:05:17;2.58;;;1.42;;
24086;SDS011;22893;50.572;7.234;2022-11-15T02:07:45;2.25;;;1.20;;
24086;SDS011;22893;50.572;7.234;2022-11-15T02:10:17;2.33;;;1.57;;
24086;SDS011;22893;50.572;7.234;2022-11-15T02:12:44;4.00;;;1.65;;
24086;SDS011;22893;50.572;7.234;2022-11-15T02:15:13;2.12;;;1.40;;
24086;SDS011;22893;50.572;7.234;2022-11-15T02:17:50;1.92;;;1.30;;
24086;SDS011;22893;50.572;7.234;2022-11-15T02:20:29;3.02;;;1.80;;
24086;SDS011;22893;50.572;7.234;2022-11-15T02:23:13;3.12;;;1.30;;
24086;SDS011;22893;50.572;7.234;2022-11-15T02:28:34;2.85;;;1.52;;
24086;SDS011;22893;50.572;7.234;2022-11-15T02:31:04;2.95;;;1.32;;
24086;SDS011;22893;50.572;7.234;2022-11-15T02:36:13;3.33;;;1.70;;
24086;SDS011;22893;50.572;7.234;2022-11-15T02:39:07;2.98;;;1.72;;
24086;SDS011;22893;50.572;7.234;2022-11-15T02:44:26;4.05;;;1.65;;
24086;SDS011;22893;50.572;7.234;2022-11-15T02:46:59;2.77;;;1.82;;
24086;SDS011;22893;50.572;7.234;2022-11-15T02:49:41;2.27;;;1.32;;
24086;SDS011;22893;50.572;7.234;2022-11-15T02:52:23;3.30;;;1.77;;
24086;SDS011;22893;50.572;7.234;2022-11-15T02:54:53;3.92;;;1.42;;
24086;SDS011;22893;50.572;7.234;2022-11-15T02:58:14;2.58;;;1.32;;
24086;SDS011;22893;50.572;7.234;2022-11-15T08:44:28;2.67;;;1.30;;
24086;SDS011;22893;50.572;7.234;2022-11-15T08:46:55;11.75;;;2.17;;
24086;SDS011;22893;50.572;7.234;2022-11-15T08:49:23;9.13;;;1.98;;
24086;SDS011;22893;50.572;7.234;2022-11-15T08:51:51;9.73;;;2.15;;
24086;SDS011;22893;50.572;7.234;2022-11-15T08:54:18;2.95;;;1.30;;
24086;SDS011;22893;50.572;7.234;2022-11-15T08:56:46;4.67;;;1.07;;
24086;SDS011;22893;50.572;7.234;2022-11-15T08:59:14;2.02;;;1.20;;
24086;SDS011;22893;50.572;7.234;2022-11-15T09:01:41;2.75;;;1.35;;
24086;SDS011;22893;50.572;7.234;2022-11-15T09:04:09;5.75;;;1.45;;
24086;SDS011;22893;50.572;7.234;2022-11-15T09:06:36;4.10;;;1.35;;
24086;SDS011;22893;50.572;7.234;2022-11-15T09:09:04;6.55;;;1.12;;
24086;SDS011;22893;50.572;7.234;2022-11-15T09:11:32;7.28;;;1.65;;
24086;SDS011;22893;50.572;7.234;2022-11-15T09:13:59;1.90;;;1.10;;
24086;SDS011;22893;50.572;7.234;2022-11-15T09:16:27;5.97;;;0.93;;
24086;SDS011;22893;50.572;7.234;2022-11-15T09:18:56;3.08;;;1.00;;
24086;SDS011;22893;50.572;7.234;2022-11-15T09:21:24;5.58;;;1.27;;
24086;SDS011;22893;50.572;7.234;2022-11-15T09:23:51;3.35;;;1.10;;
24086;SDS011;22893;50.572;7.234;2022-11-15T09:26:19;3.10;;;0.85;;
24086;SDS011;22893;50.572;7.234;2022-11-15T09:28:47;3.55;;;0.88;;
24086;SDS011;22893;50.572;7.234;2022-11-15T09:31:14;1.65;;;0.82;;
24086;SDS011;22893;50.572;7.234;2022-11-15T09:33:45;2.37;;;1.15;;
24086;SDS011;22893;50.572;7.234;2022-11-15T09:36:16;1.47;;;0.85;;
24086;SDS011;22893;50.572;7.234;2022-11-15T09:38:42;3.70;;;0.90;;
24086;SDS011;22893;50.572;7.234;2022-11-15T09:46:20;3.05;;;1.20;;
24086;SDS011;22893;50.572;7.234;2022-11-15T09:48:55;1.22;;;0.70;;
24086;SDS011;22893;50.572;7.234;2022-11-15T09:51:27;1.67;;;0.80;;
24086;SDS011;22893;50.572;7.234;2022-11-15T09:54:00;5.47;;;1.35;;
24086;SDS011;22893;50.572;7.234;2022-11-15T09:56:38;1.60;;;0.70;;
24086;SDS011;22893;50.572;7.234;2022-11-15T09:59:18;4.15;;;0.90;;
24086;SDS011;22893;50.572;7.234;2022-11-15T10:04:48;1.05;;;0.65;;
24086;SDS011;22893;50.572;7.234;2022-11-15T10:07:25;2.87;;;0.90;;
24086;SDS011;22893;50.572;7.234;2022-11-15T10:09:56;1.85;;;0.95;;
24086;SDS011;22893;50.572;7.234;2022-11-15T10:12:38;1.07;;;0.88;;
24086;SDS011;22893;50.572;7.234;2022-11-15T10:15:14;1.20;;;0.72;;
24086;SDS011;22893;50.572;7.234;2022-11-15T10:17:52;1.32;;;0.70;;
24086;SDS011;22893;50.572;7.234;2022-11-15T10:23:18;5.35;;;1.05;;
24086;SDS011;22893;50.572;7.234;2022-11-15T10:25:51;2.90;;;0.62;;
24086;SDS011;22893;50.572;7.234;2022-11-15T10:30:56;3.50;;;1.20;;
24086;SDS011;22893;50.572;7.234;2022-11-15T10:49:27;3.27;;;1.05;;
24086;SDS011;22893;50.572;7.234;2022-11-15T10:52:02;2.80;;;0.70;;
24086;SDS011;22893;50.572;7.234;2022-11-15T10:54:31;1.07;;;0.60;;
24086;SDS011;22893;50.572;7.234;2022-11-15T10:57:06;1.90;;;0.78;;
24086;SDS011;22893;50.572;7.234;2022-11-15T10:59:36;2.67;;;0.88;;
24086;SDS011;22893;50.572;7.234;2022-11-15T11:02:26;1.05;;;0.70;;
24086;SDS011;22893;50.572;7.234;2022-11-15T11:05:06;1.95;;;0.80;;
24086;SDS011;22893;50.572;7.234;2022-11-15T11:07:34;3.30;;;1.00;;
24086;SDS011;22893;50.572;7.234;2022-11-15T11:10:19;2.20;;;0.70;;
24086;SDS011;22893;50.572;7.234;2022-11-15T11:12:48;3.17;;;0.72;;
24086;SDS011;22893;50.572;7.234;2022-11-15T11:15:15;10.18;;;1.42;;
24086;SDS011;22893;50.572;7.234;2022-11-15T11:28:54;3.92;;;0.70;;
24086;SDS011;22893;50.572;7.234;2022-11-15T11:34:17;5.95;;;1.05;;
24086;SDS011;22893;50.572;7.234;2022-11-15T11:37:07;3.22;;;0.82;;
24086;SDS011;22893;50.572;7.234;2022-11-15T11:39:45;1.85;;;0.65;;
24086;SDS011;22893;50.572;7.234;2022-11-15T11:42:15;3.58;;;1.02;;
24086;SDS011;22893;50.572;7.234;2022-11-15T11:47:32;4.55;;;0.93;;
24086;SDS011;22893;50.572;7.234;2022-11-15T11:52:58;2.05;;;0.78;;
24086;SDS011;22893;50.572;7.234;2022-11-15T11:55:41;6.12;;;0.88;;
24086;SDS011;22893;50.572;7.234;2022-11-15T11:58:18;3.75;;;0.72;;
24086;SDS011;22893;50.572;7.234;2022-11-15T12:06:33;4.37;;;1.02;;
24086;SDS011;22893;50.572;7.234;2022-11-15T12:14:51;3.65;;;1.00;;
24086;SDS011;22893;50.572;7.234;2022-11-15T12:17:27;5.15;;;1.12;;
24086;SDS011;22893;50.572;7.234;2022-11-15T12:20:02;4.62;;;0.95;;
24086;SDS011;22893;50.572;7.234;2022-11-15T12:22:26;2.47;;;0.70;;
24086;SDS011;22893;50.572;7.234;2022-11-15T12:25:17;7.37;;;1.25;;
24086;SDS011;22893;50.572;7.234;2022-11-15T12:28:00;4.15;;;0.70;;
24086;SDS011;22893;50.572;7.234;2022-11-15T12:30:21;2.67;;;1.32;;
24086;SDS011;22893;50.572;7.234;2022-11-15T12:32:55;12.20;;;1.07;;
24086;SDS011;22893;50.572;7.234;2022-11-15T12:35:34;3.85;;;0.80;;
24086;SDS011;22893;50.572;7.234;2022-11-15T12:38:04;5.08;;;1.52;;
24086;SDS011;22893;50.572;7.234;2022-11-15T12:41:11;4.67;;;1.30;;
24086;SDS011;22893;50.572;7.234;2022-11-15T12:43:39;6.22;;;0.70;;
24086;SDS011;22893;50.572;7.234;2022-11-15T12:46:13;2.85;;;1.02;;
24086;SDS011;22893;50.572;7.234;2022-11-15T12:49:00;4.62;;;0.80;;
24086;SDS011;22893;50.572;7.234;2022-11-15T12:59:47;1.92;;;0.72;;
24086;SDS011;22893;50.572;7.234;2022-11-15T13:02:24;2.70;;;0.70;;
24086;SDS011;22893;50.572;7.234;2022-11-15T13:04:55;2.75;;;1.05;;
24086;SDS011;22893;50.572;7.234;2022-11-15T13:10:33;5.78;;;1.42;;
24086;SDS011;22893;50.572;7.234;2022-11-15T13:15:56;2.33;;;1.05;;
24086;SDS011;22893;50.572;7.234;2022-11-15T13:18:32;5.47;;;1.27;;
24086;SDS011;22893;50.572;7.234;2022-11-15T13:21:17;4.45;;;0.90;;
24086;SDS011;22893;50.572;7.234;2022-11-15T13:23:52;4.90;;;1.10;;
24086;SDS011;22893;50.572;7.234;2022-11-15T13:26:23;5.12;;;0.90;;
24086;SDS011;22893;50.572;7.234;2022-11-15T13:28:51;4.87;;;1.00;;
24086;SDS011;22893;50.572;7.234;2022-11-15T13:31:37;9.23;;;1.37;;
24086;SDS011;22893;50.572;7.234;2022-11-15T13:36:48;3.08;;;0.70;;
24086;SDS011;22893;50.572;7.234;2022-11-15T13:39:26;2.37;;;1.00;;
24086;SDS011;22893;50.572;7.234;2022-11-15T13:41:55;4.85;;;0.70;;
24086;SDS011;22893;50.572;7.234;2022-11-15T13:44:34;3.47;;;1.62;;
24086;SDS011;22893;50.572;7.234;2022-11-15T13:47:06;3.40;;;1.27;;
24086;SDS011;22893;50.572;7.234;2022-11-15T13:49:35;1.95;;;1.00;;
24086;SDS011;22893;50.572;7.234;2022-11-15T13:52:04;2.67;;;1.07;;
24086;SDS011;22893;50.572;7.234;2022-11-15T13:57:25;6.60;;;1.77;;
24086;SDS011;22893;50.572;7.234;2022-11-15T13:59:46;5.80;;;1.70;;
24086;SDS011;22893;50.572;7.234;2022-11-15T14:02:16;6.65;;;1.00;;
24086;SDS011;22893;50.572;7.234;2022-11-15T14:05:05;7.72;;;1.20;;
24086;SDS011;22893;50.572;7.234;2022-11-15T14:07:28;2.70;;;1.10;;
24086;SDS011;22893;50.572;7.234;2022-11-15T14:09:56;7.05;;;1.00;;
24086;SDS011;22893;50.572;7.234;2022-11-15T14:12:28;10.05;;;2.37;;
24086;SDS011;22893;50.572;7.234;2022-11-15T14:18:03;5.45;;;1.05;;
24086;SDS011;22893;50.572;7.234;2022-11-15T14:20:35;5.03;;;1.20;;
24086;SDS011;22893;50.572;7.234;2022-11-15T14:23:04;4.33;;;0.80;;
24086;SDS011;22893;50.572;7.234;2022-11-15T14:25:34;10.43;;;1.12;;
24086;SDS011;22893;50.572;7.234;2022-11-15T14:28:12;7.85;;;1.57;;
24086;SDS011;22893;50.572;7.234;2022-11-15T14:30:51;5.47;;;0.70;;
24086;SDS011;22893;50.572;7.234;2022-11-15T14:35:51;6.97;;;1.22;;
24086;SDS011;22893;50.572;7.234;2022-11-15T14:38:20;3.90;;;2.35;;
24086;SDS011;22893;50.572;7.234;2022-11-15T14:40:49;2.72;;;1.57;;
24086;SDS011;22893;50.572;7.234;2022-11-15T14:43:17;6.72;;;1.02;;
24086;SDS011;22893;50.572;7.234;2022-11-15T14:45:44;4.15;;;1.60;;
24086;SDS011;22893;50.572;7.234;2022-11-15T14:48:12;7.75;;;1.00;;
24086;SDS011;22893;50.572;7.234;2022-11-15T14:50:40;1.67;;;1.07;;
24086;SDS011;22893;50.572;7.234;2022-11-15T14:53:11;6.78;;;2.05;;
24086;SDS011;22893;50.572;7.234;2022-11-15T14:55:43;4.22;;;1.15;;
24086;SDS011;22893;50.572;7.234;2022-11-15T14:58:11;3.12;;;0.93;;
24086;SDS011;22893;50.572;7.234;2022-11-15T15:00:39;8.33;;;2.77;;
24086;SDS011;22893;50.572;7.234;2022-11-15T15:03:07;5.20;;;1.12;;
24086;SDS011;22893;50.572;7.234;2022-11-15T15:05:40;3.67;;;1.62;;
24086;SDS011;22893;50.572;7.234;2022-11-15T15:08:06;8.93;;;1.95;;
24086;SDS011;22893;50.572;7.234;2022-11-15T15:10:35;1.60;;;0.95;;
24086;SDS011;22893;50.572;7.234;2022-11-15T15:13:16;2.20;;;1.05;;
24086;SDS011;22893;50.572;7.234;2022-11-15T15:15:46;3.02;;;1.30;;
24086;SDS011;22893;50.572;7.234;2022-11-15T15:18:15;2.70;;;1.20;;
24086;SDS011;22893;50.572;7.234;2022-11-15T15:20:43;6.28;;;1.98;;
24086;SDS011;22893;50.572;7.234;2022-11-15T15:23:17;5.20;;;1.50;;
24086;SDS011;22893;50.572;7.234;2022-11-15T15:25:46;7.03;;;1.35;;
24086;SDS011;22893;50.572;7.234;2022-11-15T15:28:14;3.72;;;1.35;;
24086;SDS011;22893;50.572;7.234;2022-11-15T15:30:42;3.22;;;0.90;;
24086;SDS011;22893;50.572;7.234;2022-11-15T15:33:10;3.98;;;1.22;;
24086;SDS011;22893;50.572;7.234;2022-11-15T15:35:37;3.87;;;1.10;;
24086;SDS011;22893;50.572;7.234;2022-11-15T15:38:05;2.25;;;0.80;;
24086;SDS011;22893;50.572;7.234;2022-11-15T15:40:32;6.47;;;1.92;;
24086;SDS011;22893;50.572;7.234;2022-11-15T15:43:00;3.80;;;1.27;;
24086;SDS011;22893;50.572;7.234;2022-11-15T15:45:27;3.12;;;1.02;;
24086;SDS011;22893;50.572;7.234;2022-11-15T15:47:55;7.55;;;1.25;;
24086;SDS011;22893;50.572;7.234;2022-11-15T15:50:24;6.00;;;1.05;;
24086;SDS011;22893;50.572;7.234;2022-11-15T15:52:59;4.87;;;1.50;;
24086;SDS011;22893;50.572;7.234;2022-11-15T15:55:24;7.55;;;1.35;;
24086;SDS011;22893;50.572;7.234;2022-11-15T15:57:52;3.40;;;1.47;;
24086;SDS011;22893;50.572;7.234;2022-11-15T16:00:19;6.97;;;1.30;;
24086;SDS011;22893;50.572;7.234;2022-11-15T16:02:49;4.62;;;1.82;;
24086;SDS011;22893;50.572;7.234;2022-11-15T16:05:17;3.60;;;1.00;;
24086;SDS011;22893;50.572;7.234;2022-11-15T16:07:45;6.30;;;1.17;;
24086;SDS011;22893;50.572;7.234;2022-11-15T16:10:27;5.70;;;1.95;;
24086;SDS011;22893;50.572;7.234;2022-11-15T16:12:56;3.52;;;1.15;;
24086;SDS011;22893;50.572;7.234;2022-11-15T16:15:25;4.33;;;1.65;;
24086;SDS011;22893;50.572;7.234;2022-11-15T16:17:58;9.95;;;1.32;;
24086;SDS011;22893;50.572;7.234;2022-11-15T16:20:34;2.37;;;1.20;;
24086;SDS011;22893;50.572;7.234;2022-11-15T16:23:03;3.20;;;1.35;;
24086;SDS011;22893;50.572;7.234;2022-11-15T16:25:40;5.37;;;1.27;;
24086;SDS011;22893;50.572;7.234;2022-11-15T16:28:17;7.58;;;1.27;;
24086;SDS011;22893;50.572;7.234;2022-11-15T16:31:11;7.50;;;1.25;;
24086;SDS011;22893;50.572;7.234;2022-11-15T16:33:28;3.05;;;0.85;;
24086;SDS011;22893;50.572;7.234;2022-11-15T16:35:56;3.25;;;1.20;;
24086;SDS011;22893;50.572;7.234;2022-11-15T16:38:23;6.97;;;1.42;;
24086;SDS011;22893;50.572;7.234;2022-11-15T16:40:51;4.00;;;1.70;;
24086;SDS011;22893;50.572;7.234;2022-11-15T16:43:19;4.05;;;1.27;;
24086;SDS011;22893;50.572;7.234;2022-11-15T16:45:46;5.25;;;1.52;;
24086;SDS011;22893;50.572;7.234;2022-11-15T16:48:19;3.72;;;0.70;;
24086;SDS011;22893;50.572;7.234;2022-11-15T16:50:59;5.05;;;1.12;;
24086;SDS011;22893;50.572;7.234;2022-11-15T16:53:24;3.90;;;1.40;;
24086;SDS011;22893;50.572;7.234;2022-11-15T16:55:58;2.80;;;1.10;;
24086;SDS011;22893;50.572;7.234;2022-11-15T16:58:22;3.15;;;1.57;;
24086;SDS011;22893;50.572;7.234;2022-11-15T17:00:54;2.80;;;1.20;;
24086;SDS011;22893;50.572;7.234;2022-11-15T17:03:22;3.25;;;1.00;;
24086;SDS011;22893;50.572;7.234;2022-11-15T17:05:50;5.42;;;1.82;;
24086;SDS011;22893;50.572;7.234;2022-11-15T17:08:18;3.62;;;1.20;;
24086;SDS011;22893;50.572;7.234;2022-11-15T17:10:47;2.20;;;0.90;;
24086;SDS011;22893;50.572;7.234;2022-11-15T17:13:14;4.35;;;2.00;;
24086;SDS011;22893;50.572;7.234;2022-11-15T17:15:42;3.10;;;1.17;;
24086;SDS011;22893;50.572;7.234;2022-11-15T17:18:10;2.62;;;1.32;;
24086;SDS011;22893;50.572;7.234;2022-11-15T17:20:40;4.17;;;1.22;;
24086;SDS011;22893;50.572;7.234;2022-11-15T17:23:11;5.40;;;0.93;;
24086;SDS011;22893;50.572;7.234;2022-11-15T17:25:39;4.03;;;1.12;;
24086;SDS011;22893;50.572;7.234;2022-11-15T17:28:06;3.05;;;0.90;;
24086;SDS011;22893;50.572;7.234;2022-11-15T17:30:36;3.67;;;1.05;;
24086;SDS011;22893;50.572;7.234;2022-11-15T17:33:06;4.20;;;1.30;;
24086;SDS011;22893;50.572;7.234;2022-11-15T17:35:36;8.13;;;2.40;;
24086;SDS011;22893;50.572;7.234;2022-11-15T17:38:03;9.78;;;1.45;;
24086;SDS011;22893;50.572;7.234;2022-11-15T17:40:31;2.20;;;1.32;;
24086;SDS011;22893;50.572;7.234;2022-11-15T17:43:01;4.08;;;1.20;;
24086;SDS011;22893;50.572;7.234;2022-11-15T17:45:30;3.70;;;1.05;;
24086;SDS011;22893;50.572;7.234;2022-11-15T17:47:58;4.95;;;1.25;;
24086;SDS011;22893;50.572;7.234;2022-11-15T17:50:25;3.12;;;1.22;;
24086;SDS011;22893;50.572;7.234;2022-11-15T17:52:53;4.00;;;1.10;;
24086;SDS011;22893;50.572;7.234;2022-11-15T17:55:22;9.95;;;1.20;;
24086;SDS011;22893;50.572;7.234;2022-11-15T17:57:49;3.60;;;1.10;;
24086;SDS011;22893;50.572;7.234;2022-11-15T18:00:17;6.55;;;1.32;;
24086;SDS011;22893;50.572;7.234;2022-11-15T18:02:46;1.87;;;0.80;;
24086;SDS011;22893;50.572;7.234;2022-11-15T18:05:14;5.33;;;1.10;;
24086;SDS011;22893;50.572;7.234;2022-11-15T18:07:41;6.30;;;1.52;;
24086;SDS011;22893;50.572;7.234;2022-11-15T18:10:09;2.85;;;1.00;;
24086;SDS011;22893;50.572;7.234;2022-11-15T18:12:40;5.10;;;1.00;;
24086;SDS011;22893;50.572;7.234;2022-11-15T18:15:12;5.15;;;1.10;;
24086;SDS011;22893;50.572;7.234;2022-11-15T18:17:40;4.90;;;2.08;;
24086;SDS011;22893;50.572;7.234;2022-11-15T18:20:08;6.47;;;1.07;;
24086;SDS011;22893;50.572;7.234;2022-11-15T18:22:40;10.48;;;1.30;;
24086;SDS011;22893;50.572;7.234;2022-11-15T18:25:09;2.55;;;1.20;;
24086;SDS011;22893;50.572;7.234;2022-11-15T18:48:30;3.52;;;1.15;;
24086;SDS011;22893;50.572;7.234;2022-11-15T18:51:06;3.17;;;1.12;;
24086;SDS011;22893;50.572;7.234;2022-11-15T18:53:37;4.60;;;1.00;;
24086;SDS011;22893;50.572;7.234;2022-11-15T18:56:04;4.45;;;1.10;;
24086;SDS011;22893;50.572;7.234;2022-11-15T18:58:41;3.95;;;1.45;;
24086;SDS011;22893;50.572;7.234;2022-11-15T19:01:30;6.42;;;1.85;;
24086;SDS011;22893;50.572;7.234;2022-11-15T19:04:11;5.78;;;2.22;;
24086;SDS011;22893;50.572;7.234;2022-11-15T19:06:44;4.45;;;1.80;;
24086;SDS011;22893;50.572;7.234;2022-11-15T19:09:22;4.08;;;2.08;;
24086;SDS011;22893;50.572;7.234;2022-11-15T19:11:57;2.98;;;1.77;;
24086;SDS011;22893;50.572;7.234;2022-11-15T19:14:25;4.97;;;1.57;;
24086;SDS011;22893;50.572;7.234;2022-11-15T19:17:00;6.45;;;2.33;;
24086;SDS011;22893;50.572;7.234;2022-11-15T19:19:29;4.40;;;1.42;;
24086;SDS011;22893;50.572;7.234;2022-11-15T19:22:03;2.72;;;1.67;;
24086;SDS011;22893;50.572;7.234;2022-11-15T19:24:31;2.58;;;0.90;;
24086;SDS011;22893;50.572;7.234;2022-11-15T19:27:01;5.25;;;0.98;;
24086;SDS011;22893;50.572;7.234;2022-11-15T19:29:28;3.42;;;1.32;;
24086;SDS011;22893;50.572;7.234;2022-11-15T19:31:56;6.65;;;2.00;;
24086;SDS011;22893;50.572;7.234;2022-11-15T19:34:25;1.92;;;1.30;;
24086;SDS011;22893;50.572;7.234;2022-11-15T19:36:53;8.30;;;2.33;;
24086;SDS011;22893;50.572;7.234;2022-11-15T19:39:21;4.58;;;2.02;;
24086;SDS011;22893;50.572;7.234;2022-11-15T19:41:48;2.42;;;1.27;;
24086;SDS011;22893;50.572;7.234;2022-11-15T19:44:16;2.70;;;1.20;;
24086;SDS011;22893;50.572;7.234;2022-11-15T19:46:48;10.38;;;3.55;;
24086;SDS011;22893;50.572;7.234;2022-11-15T19:49:20;9.83;;;5.15;;
24086;SDS011;22893;50.572;7.234;2022-11-15T19:51:48;32.05;;;12.82;;
24086;SDS011;22893;50.572;7.234;2022-11-15T19:54:16;40.38;;;14.60;;
24086;SDS011;22893;50.572;7.234;2022-11-15T19:56:43;40.10;;;17.15;;
24086;SDS011;22893;50.572;7.234;2022-11-15T19:59:11;39.75;;;17.40;;
24086;SDS011;22893;50.572;7.234;2022-11-15T20:01:39;40.08;;;19.15;;
24086;SDS011;22893;50.572;7.234;2022-11-15T20:04:11;41.33;;;18.17;;
24086;SDS011;22893;50.572;7.234;2022-11-15T20:06:39;38.13;;;16.25;;
24086;SDS011;22893;50.572;7.234;2022-11-15T20:09:14;37.65;;;17.45;;
24086;SDS011;22893;50.572;7.234;2022-11-15T20:11:44;43.68;;;17.52;;
24086;SDS011;22893;50.572;7.234;2022-11-15T20:14:11;44.00;;;18.30;;
24086;SDS011;22893;50.572;7.234;2022-11-15T20:16:41;45.05;;;17.17;;
24086;SDS011;22893;50.572;7.234;2022-11-15T20:19:08;31.27;;;14.55;;
24086;SDS011;22893;50.572;7.234;2022-11-15T20:21:41;29.77;;;14.38;;
24086;SDS011;22893;50.572;7.234;2022-11-15T20:24:09;33.95;;;15.38;;
24086;SDS011;22893;50.572;7.234;2022-11-15T20:26:37;33.33;;;14.38;;
24086;SDS011;22893;50.572;7.234;2022-11-15T20:29:06;34.48;;;13.80;;
24086;SDS011;22893;50.572;7.234;2022-11-15T20:31:34;39.75;;;15.10;;
24086;SDS011;22893;50.572;7.234;2022-11-15T20:34:02;31.07;;;12.07;;
24086;SDS011;22893;50.572;7.234;2022-11-15T20:36:33;31.33;;;11.60;;
24086;SDS011;22893;50.572;7.234;2022-11-15T20:39:00;30.88;;;13.03;;
24086;SDS011;22893;50.572;7.234;2022-11-15T20:41:31;34.78;;;12.93;;
24086;SDS011;22893;50.572;7.234;2022-11-15T20:43:59;36.28;;;13.85;;
24086;SDS011;22893;50.572;7.234;2022-11-15T20:46:27;28.47;;;11.05;;
24086;SDS011;22893;50.572;7.234;2022-11-15T20:48:55;27.87;;;13.30;;
24086;SDS011;22893;50.572;7.234;2022-11-15T20:51:23;25.72;;;11.53;;
24086;SDS011;22893;50.572;7.234;2022-11-15T20:53:54;27.35;;;10.35;;
24086;SDS011;22893;50.572;7.234;2022-11-15T20:56:22;24.52;;;11.00;;
24086;SDS011;22893;50.572;7.234;2022-11-15T20:58:50;36.90;;;11.18;;
24086;SDS011;22893;50.572;7.234;2022-11-15T21:01:19;29.30;;;10.25;;
24086;SDS011;22893;50.572;7.234;2022-11-15T21:03:49;21.02;;;9.30;;
24086;SDS011;22893;50.572;7.234;2022-11-15T21:06:21;22.60;;;10.00;;
24086;SDS011;22893;50.572;7.234;2022-11-15T21:08:51;27.02;;;10.72;;
24086;SDS011;22893;50.572;7.234;2022-11-15T21:11:37;24.95;;;10.05;;
24086;SDS011;22893;50.572;7.234;2022-11-15T21:14:23;18.65;;;8.08;;
24086;SDS011;22893;50.572;7.234;2022-11-15T21:16:50;19.90;;;8.65;;
24086;SDS011;22893;50.572;7.234;2022-11-15T21:19:18;29.40;;;8.93;;
24086;SDS011;22893;50.572;7.234;2022-11-15T21:21:46;24.15;;;8.48;;
24086;SDS011;22893;50.572;7.234;2022-11-15T21:24:14;17.85;;;8.25;;
24086;SDS011;22893;50.572;7.234;2022-11-15T21:26:43;23.25;;;7.50;;
24086;SDS011;22893;50.572;7.234;2022-11-15T21:29:11;20.27;;;8.45;;
24086;SDS011;22893;50.572;7.234;2022-11-15T21:31:42;18.05;;;7.33;;
24086;SDS011;22893;50.572;7.234;2022-11-15T21:34:13;25.35;;;8.65;;
24086;SDS011;22893;50.572;7.234;2022-11-15T21:36:42;21.17;;;8.53;;
24086;SDS011;22893;50.572;7.234;2022-11-15T21:39:09;21.17;;;9.85;;
24086;SDS011;22893;50.572;7.234;2022-11-15T21:41:37;22.27;;;7.10;;
24086;SDS011;22893;50.572;7.234;2022-11-15T21:44:08;18.52;;;6.45;;
24086;SDS011;22893;50.572;7.234;2022-11-15T21:46:35;18.48;;;7.20;;
24086;SDS011;22893;50.572;7.234;2022-11-15T21:49:03;15.48;;;7.03;;
24086;SDS011;22893;50.572;7.234;2022-11-15T21:51:31;17.55;;;7.00;;
24086;SDS011;22893;50.572;7.234;2022-11-15T21:53:59;13.68;;;6.05;;
24086;SDS011;22893;50.572;7.234;2022-11-15T21:56:27;21.40;;;6.87;;
24086;SDS011;22893;50.572;7.234;2022-11-15T21:58:58;16.15;;;6.62;;
24086;SDS011;22893;50.572;7.234;2022-11-15T22:01:26;15.40;;;6.50;;
24086;SDS011;22893;50.572;7.234;2022-11-15T22:04:12;15.13;;;6.55;;
24086;SDS011;22893;50.572;7.234;2022-11-15T22:06:40;18.05;;;5.87;;
24086;SDS011;22893;50.572;7.234;2022-11-15T22:09:08;11.78;;;4.58;;
24086;SDS011;22893;50.572;7.234;2022-11-15T22:11:36;17.23;;;5.90;;
24086;SDS011;22893;50.572;7.234;2022-11-15T22:14:06;10.63;;;3.33;;
24086;SDS011;22893;50.572;7.234;2022-11-15T22:16:32;13.93;;;3.42;;
24086;SDS011;22893;50.572;7.234;2022-11-15T22:19:01;12.33;;;4.90;;
24086;SDS011;22893;50.572;7.234;2022-11-15T22:21:29;11.70;;;3.92;;
24086;SDS011;22893;50.572;7.234;2022-11-15T22:23:57;15.15;;;5.30;;
24086;SDS011;22893;50.572;7.234;2022-11-15T22:26:24;13.85;;;4.35;;
24086;SDS011;22893;50.572;7.234;2022-11-15T22:28:52;11.10;;;5.58;;
24086;SDS011;22893;50.572;7.234;2022-11-15T22:31:20;14.03;;;4.60;;
24086;SDS011;22893;50.572;7.234;2022-11-15T22:33:47;9.68;;;4.47;;
24086;SDS011;22893;50.572;7.234;2022-11-15T22:36:15;10.03;;;3.65;;
24086;SDS011;22893;50.572;7.234;2022-11-15T22:38:43;11.75;;;4.33;;
24086;SDS011;22893;50.572;7.234;2022-11-15T22:41:10;11.25;;;3.42;;
24086;SDS011;22893;50.572;7.234;2022-11-15T22:43:38;9.78;;;4.15;;
24086;SDS011;22893;50.572;7.234;2022-11-15T22:46:06;7.87;;;3.67;;
24086;SDS011;22893;50.572;7.234;2022-11-15T22:48:34;9.15;;;4.37;;